createdAt,value
2018-08-06T00:00:04.600Z,20.6666666667
2018-08-06T00:00:17.134Z,20.6666666667
2018-08-06T00:00:29.679Z,20.6666666667
2018-08-06T00:00:42.247Z,20.6666666667
2018-08-06T00:00:54.796Z,20.6666666667
2018-08-06T00:01:07.321Z,20.6111111111
2018-08-06T00:01:19.887Z,20.6666666667
2018-08-06T00:01:32.461Z,20.6111111111
2018-08-06T00:01:45.179Z,20.6666666667
2018-08-06T00:01:57.684Z,20.6666666667
2018-08-06T00:02:10.206Z,20.6666666667
2018-08-06T00:02:22.847Z,20.6666666667
2018-08-06T00:02:35.361Z,20.6666666667
2018-08-06T00:02:47.904Z,20.6666666667
2018-08-06T00:03:00.426Z,20.6666666667
2018-08-06T00:03:12.943Z,20.6666666667
2018-08-06T00:03:25.519Z,20.6111111111
2018-08-06T00:03:38.018Z,20.6111111111
2018-08-06T00:03:50.487Z,20.6666666667
2018-08-06T00:04:02.998Z,20.6111111111
2018-08-06T00:04:15.512Z,20.6666666667
2018-08-06T00:04:28.058Z,20.6666666667
2018-08-06T00:04:40.559Z,20.6111111111
2018-08-06T00:04:53.063Z,20.6111111111
2018-08-06T00:05:05.604Z,20.6111111111
2018-08-06T00:05:18.132Z,20.6111111111
2018-08-06T00:05:31.060Z,20.6111111111
2018-08-06T00:05:43.579Z,20.6111111111
2018-08-06T00:05:56.077Z,20.6111111111
2018-08-06T00:06:08.589Z,20.6111111111
2018-08-06T00:06:21.148Z,20.6111111111
2018-08-06T00:06:33.689Z,20.6111111111
2018-08-06T00:06:46.265Z,20.6111111111
2018-08-06T00:06:58.769Z,20.6111111111
2018-08-06T00:07:11.280Z,20.5555555556
2018-08-06T00:07:23.779Z,20.6111111111
2018-08-06T00:07:36.296Z,20.6111111111
2018-08-06T00:07:48.797Z,20.6111111111
2018-08-06T00:08:01.361Z,20.6111111111
2018-08-06T00:08:14.250Z,20.6111111111
2018-08-06T00:08:26.757Z,20.6111111111
2018-08-06T00:08:39.312Z,20.6111111111
2018-08-06T00:08:51.842Z,20.6111111111
2018-08-06T00:09:04.348Z,20.5555555556
2018-08-06T00:09:16.871Z,20.5555555556
2018-08-06T00:09:29.388Z,20.5555555556
2018-08-06T00:09:41.908Z,20.6111111111
2018-08-06T00:09:54.421Z,20.5555555556
2018-08-06T00:10:06.935Z,20.5555555556
2018-08-06T00:10:19.434Z,20.5555555556
2018-08-06T00:10:31.959Z,20.5555555556
2018-08-06T00:10:44.474Z,20.5555555556
2018-08-06T00:10:57.129Z,20.5555555556
2018-08-06T00:11:09.613Z,20.5555555556
2018-08-06T00:11:22.146Z,20.5555555556
2018-08-06T00:11:34.698Z,20.5555555556
2018-08-06T00:11:47.198Z,20.5555555556
2018-08-06T00:11:59.697Z,20.5555555556
2018-08-06T00:12:12.217Z,20.5555555556
2018-08-06T00:12:24.744Z,20.5555555556
2018-08-06T00:12:37.253Z,20.5555555556
2018-08-06T00:12:49.770Z,20.5555555556
2018-08-06T00:13:02.289Z,20.5555555556
2018-08-06T00:13:14.801Z,20.5555555556
2018-08-06T00:13:27.296Z,20.5555555556
2018-08-06T00:13:39.825Z,20.5555555556
2018-08-06T00:13:52.339Z,20.5555555556
2018-08-06T00:14:04.875Z,20.5555555556
2018-08-06T00:14:17.379Z,20.5555555556
2018-08-06T00:14:29.892Z,20.5
2018-08-06T00:14:42.436Z,20.5555555556
2018-08-06T00:14:54.958Z,20.5
2018-08-06T00:15:07.480Z,20.5
2018-08-06T00:15:19.972Z,20.5555555556
2018-08-06T00:15:32.484Z,20.5
2018-08-06T00:15:44.994Z,20.5555555556
2018-08-06T00:15:57.545Z,20.5
2018-08-06T00:16:10.073Z,20.5
2018-08-06T00:16:22.593Z,20.5
2018-08-06T00:16:35.145Z,20.5
2018-08-06T00:16:47.645Z,20.5
2018-08-06T00:17:00.145Z,20.5
2018-08-06T00:17:12.659Z,20.5
2018-08-06T00:17:25.151Z,20.5
2018-08-06T00:17:37.647Z,20.5
2018-08-06T00:17:50.159Z,20.5
2018-08-06T00:18:02.660Z,20.5
2018-08-06T00:18:15.170Z,20.5
2018-08-06T00:18:27.650Z,20.5
2018-08-06T00:18:40.171Z,20.5
2018-08-06T00:18:52.681Z,20.5
2018-08-06T00:19:05.297Z,20.5
2018-08-06T00:19:17.795Z,20.5
2018-08-06T00:19:30.312Z,20.5
2018-08-06T00:19:42.810Z,20.4444444444
2018-08-06T00:19:55.319Z,20.4444444444
2018-08-06T00:20:07.839Z,20.4444444444
2018-08-06T00:20:20.347Z,20.4444444444
2018-08-06T00:20:32.882Z,20.4444444444
2018-08-06T00:20:45.402Z,20.4444444444
2018-08-06T00:20:58.065Z,20.4444444444
2018-08-06T00:21:10.725Z,20.5
2018-08-06T00:21:23.284Z,20.5
2018-08-06T00:21:35.797Z,20.4444444444
2018-08-06T00:21:48.314Z,20.4444444444
2018-08-06T00:22:00.952Z,20.5
2018-08-06T00:22:13.450Z,20.4444444444
2018-08-06T00:22:25.961Z,20.5
2018-08-06T00:22:38.469Z,20.5
2018-08-06T00:22:51.096Z,20.5
2018-08-06T00:23:03.647Z,20.5
2018-08-06T00:23:16.163Z,20.5
2018-08-06T00:23:28.666Z,20.5
2018-08-06T00:23:41.190Z,20.5
2018-08-06T00:23:53.715Z,20.5
2018-08-06T00:24:06.243Z,20.5
2018-08-06T00:24:18.748Z,20.5
2018-08-06T00:24:31.269Z,20.5
2018-08-06T00:24:43.811Z,20.5
2018-08-06T00:24:56.314Z,20.5
2018-08-06T00:25:08.846Z,20.5
2018-08-06T00:25:21.365Z,20.5
2018-08-06T00:25:33.882Z,20.4444444444
2018-08-06T00:25:46.380Z,20.5
2018-08-06T00:25:58.887Z,20.5
2018-08-06T00:26:11.408Z,20.4444444444
2018-08-06T00:26:23.926Z,20.4444444444
2018-08-06T00:26:36.463Z,20.4444444444
2018-08-06T00:26:48.979Z,20.4444444444
2018-08-06T00:27:01.655Z,20.4444444444
2018-08-06T00:27:14.175Z,20.4444444444
2018-08-06T00:27:26.695Z,20.4444444444
2018-08-06T00:27:39.187Z,20.4444444444
2018-08-06T00:27:51.711Z,20.4444444444
2018-08-06T00:28:04.228Z,20.4444444444
2018-08-06T00:28:16.761Z,20.4444444444
2018-08-06T00:28:29.262Z,20.4444444444
2018-08-06T00:28:41.831Z,20.4444444444
2018-08-06T00:28:54.341Z,20.4444444444
2018-08-06T00:29:06.847Z,20.4444444444
2018-08-06T00:29:19.360Z,20.4444444444
2018-08-06T00:29:32.098Z,20.4444444444
2018-08-06T00:29:45.617Z,20.3888888889
2018-08-06T00:29:58.257Z,20.3888888889
2018-08-06T00:30:10.805Z,20.4444444444
2018-08-06T00:30:23.325Z,20.3888888889
2018-08-06T00:30:35.826Z,20.3888888889
2018-08-06T00:30:48.336Z,20.3888888889
2018-08-06T00:31:00.911Z,20.3888888889
2018-08-06T00:31:13.452Z,20.3888888889
2018-08-06T00:31:25.954Z,20.3888888889
2018-08-06T00:31:38.462Z,20.3888888889
2018-08-06T00:31:50.972Z,20.3333333333
2018-08-06T00:32:03.477Z,20.3888888889
2018-08-06T00:32:15.989Z,20.3888888889
2018-08-06T00:32:28.498Z,20.3888888889
2018-08-06T00:32:41.021Z,20.3888888889
2018-08-06T00:32:53.565Z,20.3333333333
2018-08-06T00:33:06.089Z,20.3333333333
2018-08-06T00:33:18.597Z,20.3333333333
2018-08-06T00:33:31.092Z,20.3333333333
2018-08-06T00:33:43.605Z,20.3333333333
2018-08-06T00:33:56.113Z,20.3333333333
2018-08-06T00:34:08.638Z,20.3333333333
2018-08-06T00:34:21.149Z,20.3333333333
2018-08-06T00:34:33.659Z,20.3333333333
2018-08-06T00:34:46.189Z,20.3333333333
2018-08-06T00:34:58.721Z,20.3333333333
2018-08-06T00:35:11.246Z,20.3333333333
2018-08-06T00:35:23.746Z,20.2777777778
2018-08-06T00:35:36.307Z,20.3333333333
2018-08-06T00:35:48.989Z,20.3333333333
2018-08-06T00:36:01.566Z,20.2777777778
2018-08-06T00:36:14.069Z,20.3333333333
2018-08-06T00:36:26.568Z,20.2777777778
2018-08-06T00:36:39.071Z,20.2777777778
2018-08-06T00:36:51.576Z,20.2777777778
2018-08-06T00:37:04.078Z,20.2777777778
2018-08-06T00:37:16.594Z,20.2777777778
2018-08-06T00:37:29.094Z,20.2777777778
2018-08-06T00:37:41.635Z,20.2777777778
2018-08-06T00:37:54.145Z,20.2777777778
2018-08-06T00:38:06.654Z,20.2777777778
2018-08-06T00:38:19.160Z,20.2777777778
2018-08-06T00:38:31.663Z,20.2777777778
2018-08-06T00:38:44.166Z,20.2222222222
2018-08-06T00:38:56.703Z,20.2777777778
2018-08-06T00:39:09.250Z,20.2222222222
2018-08-06T00:39:21.764Z,20.2222222222
2018-08-06T00:39:34.457Z,20.2777777778
2018-08-06T00:39:46.972Z,20.2222222222
2018-08-06T00:39:59.477Z,20.2777777778
2018-08-06T00:40:12.030Z,20.2222222222
2018-08-06T00:40:24.555Z,20.2222222222
2018-08-06T00:40:37.077Z,20.2222222222
2018-08-06T00:40:49.573Z,20.2222222222
2018-08-06T00:41:02.065Z,20.2222222222
2018-08-06T00:41:14.588Z,20.2222222222
2018-08-06T00:41:27.123Z,20.2222222222
2018-08-06T00:41:39.655Z,20.2222222222
2018-08-06T00:41:52.164Z,20.2222222222
2018-08-06T00:42:04.688Z,20.2222222222
2018-08-06T00:42:17.194Z,20.2222222222
2018-08-06T00:42:29.697Z,20.2222222222
2018-08-06T00:42:42.214Z,20.1666666667
2018-08-06T00:42:54.733Z,20.1666666667
2018-08-06T00:43:07.281Z,20.2222222222
2018-08-06T00:43:19.791Z,20.2222222222
2018-08-06T00:43:32.300Z,20.1666666667
2018-08-06T00:43:44.808Z,20.1666666667
2018-08-06T00:43:57.329Z,20.1666666667
2018-08-06T00:44:09.828Z,20.1666666667
2018-08-06T00:44:22.344Z,20.1666666667
2018-08-06T00:44:34.891Z,20.1666666667
2018-08-06T00:44:47.458Z,20.1666666667
2018-08-06T00:44:59.954Z,20.1111111111
2018-08-06T00:45:12.536Z,20.1666666667
2018-08-06T00:45:25.515Z,20.1666666667
2018-08-06T00:45:38.990Z,20.1666666667
2018-08-06T00:45:51.506Z,20.1111111111
2018-08-06T00:46:04.028Z,20.1666666667
2018-08-06T00:46:16.542Z,20.1111111111
2018-08-06T00:46:29.046Z,20.1111111111
2018-08-06T00:46:41.560Z,20.1666666667
2018-08-06T00:46:54.081Z,20.1111111111
2018-08-06T00:47:06.596Z,20.1111111111
2018-08-06T00:47:19.118Z,20.1111111111
2018-08-06T00:47:31.636Z,20.1111111111
2018-08-06T00:47:44.146Z,20.1111111111
2018-08-06T00:47:56.668Z,20.1111111111
2018-08-06T00:48:09.183Z,20.1111111111
2018-08-06T00:48:21.695Z,20.1111111111
2018-08-06T00:48:34.210Z,20.1111111111
2018-08-06T00:48:46.727Z,20.0555555556
2018-08-06T00:48:59.460Z,20.0555555556
2018-08-06T00:49:11.970Z,20.0555555556
2018-08-06T00:49:24.473Z,20.0555555556
2018-08-06T00:49:36.998Z,20.0555555556
2018-08-06T00:49:49.510Z,20.0555555556
2018-08-06T00:50:02.001Z,20.0555555556
2018-08-06T00:50:14.517Z,20.0555555556
2018-08-06T00:50:27.069Z,20.0555555556
2018-08-06T00:50:39.576Z,20.0555555556
2018-08-06T00:50:52.081Z,20.0555555556
2018-08-06T00:51:04.608Z,20.0555555556
2018-08-06T00:51:17.128Z,20.0555555556
2018-08-06T00:51:29.719Z,20.0555555556
2018-08-06T00:51:42.228Z,20.0555555556
2018-08-06T00:51:54.732Z,20.0555555556
2018-08-06T00:52:07.261Z,20.0555555556
2018-08-06T00:52:19.766Z,20.0555555556
2018-08-06T00:52:32.288Z,20
2018-08-06T00:52:44.812Z,20.0555555556
2018-08-06T00:52:57.447Z,20
2018-08-06T00:53:10.042Z,20
2018-08-06T00:53:22.577Z,20
2018-08-06T00:53:35.096Z,20
2018-08-06T00:53:47.599Z,20
2018-08-06T00:54:00.117Z,19.9444444444
2018-08-06T00:54:12.819Z,19.9444444444
2018-08-06T00:54:25.321Z,20
2018-08-06T00:54:37.815Z,20
2018-08-06T00:54:50.321Z,20
2018-08-06T00:55:02.829Z,19.9444444444
2018-08-06T00:55:15.262Z,20
2018-08-06T00:55:27.671Z,19.9444444444
2018-08-06T00:55:40.156Z,20
2018-08-06T00:55:52.720Z,20
2018-08-06T00:56:05.227Z,19.9444444444
2018-08-06T00:56:17.736Z,19.9444444444
2018-08-06T00:56:30.315Z,19.9444444444
2018-08-06T00:56:42.797Z,20
2018-08-06T00:56:55.308Z,19.9444444444
2018-08-06T00:57:08.164Z,19.9444444444
2018-08-06T00:57:20.820Z,19.9444444444
2018-08-06T00:57:33.321Z,19.9444444444
2018-08-06T00:57:45.826Z,19.9444444444
2018-08-06T00:57:58.342Z,19.9444444444
2018-08-06T00:58:10.855Z,19.9444444444
2018-08-06T00:58:23.390Z,19.8888888889
2018-08-06T00:58:35.908Z,19.9444444444
2018-08-06T00:58:48.411Z,19.8888888889
2018-08-06T00:59:00.910Z,19.8888888889
2018-08-06T00:59:13.435Z,19.8888888889
2018-08-06T00:59:25.963Z,19.8888888889
2018-08-06T00:59:38.473Z,19.8888888889
2018-08-06T00:59:50.990Z,19.8888888889
2018-08-06T01:00:03.533Z,19.8888888889
2018-08-06T01:00:16.043Z,19.8888888889
2018-08-06T01:00:28.562Z,19.8888888889
2018-08-06T01:00:41.102Z,19.8888888889
2018-08-06T01:00:53.638Z,19.8888888889
2018-08-06T01:01:06.151Z,19.8333333333
2018-08-06T01:01:18.674Z,19.8888888889
2018-08-06T01:01:31.212Z,19.8888888889
2018-08-06T01:01:43.767Z,19.8888888889
2018-08-06T01:01:56.288Z,19.8888888889
2018-08-06T01:02:08.786Z,19.8333333333
2018-08-06T01:02:21.470Z,19.8333333333
2018-08-06T01:02:33.985Z,19.8333333333
2018-08-06T01:02:46.505Z,19.8888888889
2018-08-06T01:02:59.040Z,19.8333333333
2018-08-06T01:03:11.563Z,19.8333333333
2018-08-06T01:03:24.082Z,19.8333333333
2018-08-06T01:03:36.634Z,19.8333333333
2018-08-06T01:03:49.132Z,19.8333333333
2018-08-06T01:04:01.641Z,19.8333333333
2018-08-06T01:04:14.161Z,19.8333333333
2018-08-06T01:04:26.667Z,19.8333333333
2018-08-06T01:04:39.195Z,19.8333333333
2018-08-06T01:04:51.702Z,19.8333333333
2018-08-06T01:05:04.228Z,19.8333333333
2018-08-06T01:05:16.741Z,19.7777777778
2018-08-06T01:05:29.384Z,19.8333333333
2018-08-06T01:05:41.897Z,19.8333333333
2018-08-06T01:05:54.388Z,19.8333333333
2018-08-06T01:06:06.907Z,19.8333333333
2018-08-06T01:06:19.492Z,19.8333333333
2018-08-06T01:06:32.009Z,19.8333333333
2018-08-06T01:06:44.529Z,19.8333333333
2018-08-06T01:06:57.057Z,19.8333333333
2018-08-06T01:07:09.566Z,19.8333333333
2018-08-06T01:07:22.055Z,19.8333333333
2018-08-06T01:07:34.577Z,19.7777777778
2018-08-06T01:07:47.121Z,19.8333333333
2018-08-06T01:07:59.637Z,19.8333333333
2018-08-06T01:08:12.143Z,19.8333333333
2018-08-06T01:08:24.672Z,19.8333333333
2018-08-06T01:08:37.199Z,19.7777777778
2018-08-06T01:08:49.698Z,19.7777777778
2018-08-06T01:09:02.212Z,19.7777777778
2018-08-06T01:09:14.720Z,19.8333333333
2018-08-06T01:09:27.230Z,19.8333333333
2018-08-06T01:09:39.739Z,19.7777777778
2018-08-06T01:09:52.239Z,19.8333333333
2018-08-06T01:10:04.743Z,19.7777777778
2018-08-06T01:10:17.285Z,19.7777777778
2018-08-06T01:10:29.792Z,19.7777777778
2018-08-06T01:10:42.337Z,19.7777777778
2018-08-06T01:10:55.036Z,19.7777777778
2018-08-06T01:11:07.550Z,19.7777777778
2018-08-06T01:11:20.063Z,19.7777777778
2018-08-06T01:11:32.562Z,19.7777777778
2018-08-06T01:11:45.066Z,19.7777777778
2018-08-06T01:11:57.622Z,19.7777777778
2018-08-06T01:12:10.150Z,19.7777777778
2018-08-06T01:12:22.648Z,19.7777777778
2018-08-06T01:12:35.152Z,19.7777777778
2018-08-06T01:12:47.680Z,19.7777777778
2018-08-06T01:13:00.200Z,19.7777777778
2018-08-06T01:13:12.708Z,19.7777777778
2018-08-06T01:13:25.222Z,19.7222222222
2018-08-06T01:13:37.721Z,19.7222222222
2018-08-06T01:13:50.300Z,19.7777777778
2018-08-06T01:14:02.809Z,19.7777777778
2018-08-06T01:14:15.320Z,19.7222222222
2018-08-06T01:14:27.841Z,19.7222222222
2018-08-06T01:14:40.347Z,19.7222222222
2018-08-06T01:14:52.874Z,19.7777777778
2018-08-06T01:15:05.373Z,19.7222222222
2018-08-06T01:15:17.889Z,19.7222222222
2018-08-06T01:15:30.411Z,19.7222222222
2018-08-06T01:15:42.931Z,19.7222222222
2018-08-06T01:15:55.504Z,19.7222222222
2018-08-06T01:16:08.006Z,19.7222222222
2018-08-06T01:16:20.534Z,19.7222222222
2018-08-06T01:16:33.033Z,19.7222222222
2018-08-06T01:16:45.551Z,19.7222222222
2018-08-06T01:16:58.066Z,19.7222222222
2018-08-06T01:17:10.581Z,19.6666666667
2018-08-06T01:17:23.085Z,19.7222222222
2018-08-06T01:17:35.581Z,19.6666666667
2018-08-06T01:17:48.096Z,19.7222222222
2018-08-06T01:18:00.617Z,19.6666666667
2018-08-06T01:18:13.158Z,19.6666666667
2018-08-06T01:18:25.677Z,19.6666666667
2018-08-06T01:18:38.177Z,19.6666666667
2018-08-06T01:18:50.681Z,19.6666666667
2018-08-06T01:19:03.217Z,19.6666666667
2018-08-06T01:19:15.730Z,19.6666666667
2018-08-06T01:19:28.259Z,19.7222222222
2018-08-06T01:19:40.822Z,19.6666666667
2018-08-06T01:19:53.345Z,19.6666666667
2018-08-06T01:20:05.857Z,19.6666666667
2018-08-06T01:20:18.393Z,19.6666666667
2018-08-06T01:20:30.912Z,19.6666666667
2018-08-06T01:20:43.420Z,19.6666666667
2018-08-06T01:20:56.259Z,19.6666666667
2018-08-06T01:21:08.938Z,19.6666666667
2018-08-06T01:21:21.420Z,19.6666666667
2018-08-06T01:21:33.916Z,19.6666666667
2018-08-06T01:21:46.421Z,19.6666666667
2018-08-06T01:21:59.061Z,19.6666666667
2018-08-06T01:22:11.574Z,19.6666666667
2018-08-06T01:22:24.083Z,19.6111111111
2018-08-06T01:22:36.601Z,19.6666666667
2018-08-06T01:22:49.126Z,19.6666666667
2018-08-06T01:23:01.633Z,19.6666666667
2018-08-06T01:23:14.130Z,19.6111111111
2018-08-06T01:23:26.634Z,19.6111111111
2018-08-06T01:23:39.144Z,19.6111111111
2018-08-06T01:23:51.651Z,19.6111111111
2018-08-06T01:24:04.196Z,19.6666666667
2018-08-06T01:24:16.930Z,19.6111111111
2018-08-06T01:24:29.443Z,19.6111111111
2018-08-06T01:24:41.973Z,19.6111111111
2018-08-06T01:24:54.540Z,19.6111111111
2018-08-06T01:25:07.051Z,19.6111111111
2018-08-06T01:25:19.580Z,19.6111111111
2018-08-06T01:25:32.097Z,19.6111111111
2018-08-06T01:25:44.599Z,19.6111111111
2018-08-06T01:25:57.154Z,19.6111111111
2018-08-06T01:26:09.721Z,19.6111111111
2018-08-06T01:26:22.243Z,19.6111111111
2018-08-06T01:26:34.748Z,19.6111111111
2018-08-06T01:26:47.251Z,19.6111111111
2018-08-06T01:26:59.830Z,19.6111111111
2018-08-06T01:27:12.393Z,19.6111111111
2018-08-06T01:27:24.914Z,19.6111111111
2018-08-06T01:27:37.551Z,19.6111111111
2018-08-06T01:27:50.088Z,19.6111111111
2018-08-06T01:28:02.586Z,19.5555555556
2018-08-06T01:28:15.099Z,19.5555555556
2018-08-06T01:28:27.625Z,19.6111111111
2018-08-06T01:28:40.147Z,19.6111111111
2018-08-06T01:28:52.658Z,19.6111111111
2018-08-06T01:29:05.185Z,19.6111111111
2018-08-06T01:29:17.673Z,19.6111111111
2018-08-06T01:29:30.202Z,19.5555555556
2018-08-06T01:29:42.711Z,19.6111111111
2018-08-06T01:29:55.365Z,19.6111111111
2018-08-06T01:30:07.913Z,19.5555555556
2018-08-06T01:30:20.693Z,19.6111111111
2018-08-06T01:30:33.223Z,19.6111111111
2018-08-06T01:30:45.728Z,19.5555555556
2018-08-06T01:30:58.232Z,19.6111111111
2018-08-06T01:31:10.797Z,19.6111111111
2018-08-06T01:31:23.292Z,19.6111111111
2018-08-06T01:31:35.787Z,19.6111111111
2018-08-06T01:31:48.298Z,19.5555555556
2018-08-06T01:32:00.813Z,19.5555555556
2018-08-06T01:32:13.332Z,19.6111111111
2018-08-06T01:32:25.832Z,19.5555555556
2018-08-06T01:32:38.328Z,19.6111111111
2018-08-06T01:32:50.882Z,19.5555555556
2018-08-06T01:33:03.434Z,19.5555555556
2018-08-06T01:33:15.951Z,19.5555555556
2018-08-06T01:33:28.450Z,19.6111111111
2018-08-06T01:33:40.974Z,19.5555555556
2018-08-06T01:33:53.483Z,19.5555555556
2018-08-06T01:34:05.990Z,19.5555555556
2018-08-06T01:34:18.496Z,19.5555555556
2018-08-06T01:34:31.013Z,19.5555555556
2018-08-06T01:34:43.520Z,19.5555555556
2018-08-06T01:34:56.042Z,19.5555555556
2018-08-06T01:35:08.557Z,19.5555555556
2018-08-06T01:35:21.113Z,19.5555555556
2018-08-06T01:35:33.627Z,19.5555555556
2018-08-06T01:35:46.121Z,19.5555555556
2018-08-06T01:35:58.657Z,19.5555555556
2018-08-06T01:36:11.158Z,19.5555555556
2018-08-06T01:36:23.685Z,19.5555555556
2018-08-06T01:36:36.249Z,19.5
2018-08-06T01:36:48.775Z,19.5555555556
2018-08-06T01:37:01.306Z,19.5555555556
2018-08-06T01:37:13.811Z,19.5555555556
2018-08-06T01:37:26.313Z,19.5555555556
2018-08-06T01:37:38.813Z,19.5555555556
2018-08-06T01:37:51.330Z,19.5555555556
2018-08-06T01:38:03.838Z,19.5555555556
2018-08-06T01:38:16.354Z,19.5
2018-08-06T01:38:28.871Z,19.5555555556
2018-08-06T01:38:41.388Z,19.5555555556
2018-08-06T01:38:53.890Z,19.5
2018-08-06T01:39:06.413Z,19.5
2018-08-06T01:39:18.979Z,19.5
2018-08-06T01:39:31.629Z,19.5
2018-08-06T01:39:44.133Z,19.5
2018-08-06T01:39:56.645Z,19.5
2018-08-06T01:40:09.220Z,19.5
2018-08-06T01:40:21.745Z,19.5
2018-08-06T01:40:34.250Z,19.5
2018-08-06T01:40:46.814Z,19.5
2018-08-06T01:40:59.322Z,19.5
2018-08-06T01:41:11.826Z,19.4444444444
2018-08-06T01:41:24.327Z,19.5
2018-08-06T01:41:36.876Z,19.5
2018-08-06T01:41:49.385Z,19.5
2018-08-06T01:42:01.900Z,19.4444444444
2018-08-06T01:42:14.431Z,19.5
2018-08-06T01:42:26.944Z,19.4444444444
2018-08-06T01:42:39.463Z,19.4444444444
2018-08-06T01:42:51.962Z,19.5
2018-08-06T01:43:04.492Z,19.4444444444
2018-08-06T01:43:17.041Z,19.4444444444
2018-08-06T01:43:29.540Z,19.4444444444
2018-08-06T01:43:42.060Z,19.4444444444
2018-08-06T01:43:54.576Z,19.4444444444
2018-08-06T01:44:07.132Z,19.4444444444
2018-08-06T01:44:19.674Z,19.4444444444
2018-08-06T01:44:32.207Z,19.4444444444
2018-08-06T01:44:44.740Z,19.4444444444
2018-08-06T01:44:57.244Z,19.4444444444
2018-08-06T01:45:09.751Z,19.4444444444
2018-08-06T01:45:22.295Z,19.4444444444
2018-08-06T01:45:34.809Z,19.4444444444
2018-08-06T01:45:47.959Z,19.4444444444
2018-08-06T01:46:01.147Z,19.4444444444
2018-08-06T01:46:13.747Z,19.4444444444
2018-08-06T01:46:26.377Z,19.4444444444
2018-08-06T01:46:38.883Z,19.4444444444
2018-08-06T01:46:51.388Z,19.3888888889
2018-08-06T01:47:03.902Z,19.3888888889
2018-08-06T01:47:16.425Z,19.4444444444
2018-08-06T01:47:28.924Z,19.3888888889
2018-08-06T01:47:41.451Z,19.3888888889
2018-08-06T01:47:53.976Z,19.3888888889
2018-08-06T01:48:06.487Z,19.3888888889
2018-08-06T01:48:19.011Z,19.3888888889
2018-08-06T01:48:31.517Z,19.3888888889
2018-08-06T01:48:44.055Z,19.3888888889
2018-08-06T01:48:56.643Z,19.3333333333
2018-08-06T01:49:09.185Z,19.3888888889
2018-08-06T01:49:21.696Z,19.3888888889
2018-08-06T01:49:34.207Z,19.3333333333
2018-08-06T01:49:46.723Z,19.3333333333
2018-08-06T01:49:59.207Z,19.3333333333
2018-08-06T01:50:11.708Z,19.3333333333
2018-08-06T01:50:24.282Z,19.3333333333
2018-08-06T01:50:36.765Z,19.3333333333
2018-08-06T01:50:49.332Z,19.3333333333
2018-08-06T01:51:01.834Z,19.3333333333
2018-08-06T01:51:14.352Z,19.2777777778
2018-08-06T01:51:26.996Z,19.3333333333
2018-08-06T01:51:39.504Z,19.3333333333
2018-08-06T01:51:52.034Z,19.3333333333
2018-08-06T01:52:04.549Z,19.3333333333
2018-08-06T01:52:17.134Z,19.2777777778
2018-08-06T01:52:29.662Z,19.3333333333
2018-08-06T01:52:42.200Z,19.3333333333
2018-08-06T01:52:54.749Z,19.3333333333
2018-08-06T01:53:07.247Z,19.2777777778
2018-08-06T01:53:19.762Z,19.2777777778
2018-08-06T01:53:32.293Z,19.3333333333
2018-08-06T01:53:44.811Z,19.3333333333
2018-08-06T01:53:57.310Z,19.2777777778
2018-08-06T01:54:09.828Z,19.2777777778
2018-08-06T01:54:22.327Z,19.2777777778
2018-08-06T01:54:34.843Z,19.2777777778
2018-08-06T01:54:47.368Z,19.2777777778
2018-08-06T01:54:59.867Z,19.3333333333
2018-08-06T01:55:12.391Z,19.2777777778
2018-08-06T01:55:24.945Z,19.2777777778
2018-08-06T01:55:37.440Z,19.2777777778
2018-08-06T01:55:50.012Z,19.2777777778
2018-08-06T01:56:02.534Z,19.2777777778
2018-08-06T01:56:15.047Z,19.2777777778
2018-08-06T01:56:27.676Z,19.2777777778
2018-08-06T01:56:40.212Z,19.2777777778
2018-08-06T01:56:52.731Z,19.2777777778
2018-08-06T01:57:05.224Z,19.2777777778
2018-08-06T01:57:17.747Z,19.2777777778
2018-08-06T01:57:30.261Z,19.2777777778
2018-08-06T01:57:42.798Z,19.2777777778
2018-08-06T01:57:55.300Z,19.2777777778
2018-08-06T01:58:07.808Z,19.2777777778
2018-08-06T01:58:20.339Z,19.2777777778
2018-08-06T01:58:32.822Z,19.2777777778
2018-08-06T01:58:45.325Z,19.2777777778
2018-08-06T01:58:57.839Z,19.2777777778
2018-08-06T01:59:10.339Z,19.2777777778
2018-08-06T01:59:28.013Z,19.2222222222
2018-08-06T01:59:40.532Z,19.2777777778
2018-08-06T01:59:53.058Z,19.2777777778
2018-08-06T02:00:05.601Z,19.2777777778
2018-08-06T02:00:18.127Z,19.2222222222
2018-08-06T02:00:30.652Z,19.2777777778
2018-08-06T02:00:43.217Z,19.2222222222
2018-08-06T02:00:55.741Z,19.2222222222
2018-08-06T02:01:08.285Z,19.2222222222
2018-08-06T02:01:20.795Z,19.2222222222
2018-08-06T02:01:33.371Z,19.2222222222
2018-08-06T02:01:45.911Z,19.2777777778
2018-08-06T02:01:58.445Z,19.2222222222
2018-08-06T02:02:10.959Z,19.2222222222
2018-08-06T02:02:23.595Z,19.2222222222
2018-08-06T02:02:36.123Z,19.2222222222
2018-08-06T02:02:48.631Z,19.2222222222
2018-08-06T02:03:01.141Z,19.2222222222
2018-08-06T02:03:13.627Z,19.1666666667
2018-08-06T02:03:26.139Z,19.1666666667
2018-08-06T02:03:38.630Z,19.1666666667
2018-08-06T02:03:51.135Z,19.1666666667
2018-08-06T02:04:03.642Z,19.2222222222
2018-08-06T02:04:16.159Z,19.1666666667
2018-08-06T02:04:28.677Z,19.1666666667
2018-08-06T02:04:41.184Z,19.1666666667
2018-08-06T02:04:53.713Z,19.1666666667
2018-08-06T02:05:06.274Z,19.1666666667
2018-08-06T02:05:18.818Z,19.1666666667
2018-08-06T02:05:31.413Z,19.1666666667
2018-08-06T02:05:43.950Z,19.1666666667
2018-08-06T02:05:56.501Z,19.1666666667
2018-08-06T02:06:09.033Z,19.1666666667
2018-08-06T02:06:21.541Z,19.1666666667
2018-08-06T02:06:34.042Z,19.1666666667
2018-08-06T02:06:46.558Z,19.1666666667
2018-08-06T02:06:59.087Z,19.1666666667
2018-08-06T02:07:11.598Z,19.1666666667
2018-08-06T02:07:24.113Z,19.1666666667
2018-08-06T02:07:36.657Z,19.1666666667
2018-08-06T02:07:49.190Z,19.1666666667
2018-08-06T02:08:01.708Z,19.1666666667
2018-08-06T02:08:14.224Z,19.1666666667
2018-08-06T02:08:26.739Z,19.1111111111
2018-08-06T02:08:39.271Z,19.1666666667
2018-08-06T02:08:51.775Z,19.1666666667
2018-08-06T02:09:04.289Z,19.1666666667
2018-08-06T02:09:16.826Z,19.1666666667
2018-08-06T02:09:29.376Z,19.1666666667
2018-08-06T02:09:41.874Z,19.1111111111
2018-08-06T02:09:54.372Z,19.1111111111
2018-08-06T02:10:06.892Z,19.1111111111
2018-08-06T02:10:19.420Z,19.1111111111
2018-08-06T02:10:31.999Z,19.1111111111
2018-08-06T02:10:44.519Z,19.1111111111
2018-08-06T02:10:57.193Z,19.1111111111
2018-08-06T02:11:09.723Z,19.1111111111
2018-08-06T02:11:22.235Z,19.1111111111
2018-08-06T02:11:34.752Z,19.1111111111
2018-08-06T02:11:47.276Z,19.1111111111
2018-08-06T02:11:59.778Z,19.1111111111